createdAt,value
2022-10-14T00:00:00.399Z,9.30
2022-10-14T00:02:29.180Z,9.20
2022-10-14T00:04:58.258Z,9.10
2022-10-14T00:07:28.390Z,9.10
2022-10-14T00:09:57.279Z,9.20
2022-10-14T00:12:26.048Z,9.20
2022-10-14T00:14:55.027Z,9.10
2022-10-14T00:17:24.270Z,9.10
2022-10-14T00:19:54.574Z,9.10
2022-10-14T00:22:23.277Z,9.90
2022-10-14T00:24:53.551Z,9.00
2022-10-14T00:27:22.382Z,9.00
2022-10-14T00:29:51.195Z,9.00
2022-10-14T00:32:20.768Z,9.00
2022-10-14T00:34:49.275Z,9.00
2022-10-14T00:37:17.843Z,8.90
2022-10-14T00:39:46.435Z,9.00
2022-10-14T00:42:16.822Z,9.00
2022-10-14T00:45:05.822Z,8.80
2022-10-14T00:47:37.394Z,8.80
2022-10-14T00:50:11.598Z,8.80
2022-10-14T00:52:41.858Z,8.70
2022-10-14T00:55:15.563Z,8.70
2022-10-14T00:57:46.122Z,8.80
2022-10-14T01:00:18.408Z,8.80
2022-10-14T01:02:47.800Z,8.80
2022-10-14T01:05:20.212Z,8.80
2022-10-14T01:08:02.758Z,8.80
2022-10-14T01:10:36.640Z,8.80
2022-10-14T01:13:27.114Z,8.80
2022-10-14T01:16:09.693Z,8.70
2022-10-14T01:18:52.082Z,8.60
2022-10-14T01:21:27.504Z,8.50
2022-10-14T01:24:15.273Z,8.50
2022-10-14T01:27:01.007Z,8.60
2022-10-14T01:30:11.988Z,8.60
2022-10-14T01:32:53.348Z,8.60
2022-10-14T01:35:30.219Z,8.50
2022-10-14T01:38:03.249Z,8.50
2022-10-14T01:40:36.832Z,8.50
2022-10-14T01:43:07.286Z,8.40
2022-10-14T01:45:42.201Z,8.50
2022-10-14T01:48:17.435Z,8.40
2022-10-14T01:50:49.193Z,8.30
2022-10-14T01:53:24.420Z,8.20
2022-10-14T01:55:56.669Z,8.30
2022-10-14T01:58:29.179Z,8.40
2022-10-14T02:00:59.503Z,8.20
2022-10-14T02:03:28.360Z,8.10
2022-10-14T02:06:01.632Z,8.10
2022-10-14T02:08:45.203Z,8.10
2022-10-14T02:11:18.063Z,8.00
2022-10-14T02:14:14.029Z,7.90
2022-10-14T02:16:50.690Z,7.90
2022-10-14T02:19:27.545Z,7.90
2022-10-14T02:22:01.283Z,7.90
2022-10-14T02:24:32.867Z,7.80
2022-10-14T02:27:06.773Z,7.90
2022-10-14T02:29:37.910Z,7.90
2022-10-14T02:32:09.788Z,8.00
2022-10-14T02:34:40.089Z,8.10
2022-10-14T02:37:13.188Z,8.10
2022-10-14T02:39:48.316Z,8.20
2022-10-14T02:42:17.777Z,8.20
2022-10-14T02:44:54.474Z,8.20
2022-10-14T02:47:25.290Z,8.20
2022-10-14T02:49:54.391Z,8.20
2022-10-14T02:52:23.486Z,8.20
2022-10-14T02:54:54.626Z,8.20
2022-10-14T02:57:24.396Z,8.20
2022-10-14T02:59:52.976Z,8.30
2022-10-14T03:02:21.985Z,8.40
2022-10-14T03:04:52.399Z,8.40
2022-10-14T03:07:21.186Z,8.40
2022-10-14T03:09:53.333Z,8.40
2022-10-14T03:12:22.152Z,8.50
2022-10-14T03:14:52.023Z,8.50
2022-10-14T03:17:21.259Z,8.50
2022-10-14T03:19:53.088Z,8.60
2022-10-14T03:22:22.299Z,8.70
2022-10-14T03:24:52.118Z,8.60
2022-10-14T03:27:42.545Z,8.50
2022-10-14T03:30:14.753Z,8.50
2022-10-14T03:32:56.006Z,8.50
2022-10-14T03:36:01.548Z,8.60
2022-10-14T03:38:42.570Z,8.40
2022-10-14T03:41:17.882Z,8.50
2022-10-14T03:43:46.811Z,8.30
2022-10-14T03:46:16.046Z,8.40
2022-10-14T03:48:45.193Z,8.30
2022-10-14T03:51:16.188Z,8.20
2022-10-14T03:53:45.399Z,8.10
2022-10-14T03:56:17.064Z,8.20
2022-10-14T03:58:46.554Z,8.10
2022-10-14T04:01:16.653Z,8.10
2022-10-14T04:04:21.355Z,8.00
2022-10-14T04:06:51.617Z,8.00
2022-10-14T04:09:23.011Z,8.00
2022-10-14T04:11:52.231Z,8.10
2022-10-14T04:14:43.890Z,8.10
2022-10-14T04:17:12.830Z,8.10
2022-10-14T04:19:41.531Z,8.10
2022-10-14T04:22:11.616Z,8.10
2022-10-14T04:24:40.612Z,8.00
2022-10-14T04:27:10.137Z,8.10
2022-10-14T04:29:54.896Z,8.10
2022-10-14T04:32:29.575Z,8.00
2022-10-14T04:34:58.513Z,8.00
2022-10-14T04:37:33.217Z,8.00
2022-10-14T04:40:08.026Z,8.00
2022-10-14T04:42:43.414Z,7.90
2022-10-14T04:45:21.277Z,7.90
2022-10-14T04:47:56.278Z,8.00
2022-10-14T04:50:26.417Z,8.00
2022-10-14T04:53:34.820Z,7.80
2022-10-14T04:56:29.995Z,7.80
2022-10-14T04:59:03.331Z,7.90
2022-10-14T05:01:53.200Z,7.90
2022-10-14T05:04:23.077Z,7.80
2022-10-14T05:06:53.664Z,7.80
2022-10-14T05:09:24.061Z,7.70
2022-10-14T05:11:52.749Z,7.70
2022-10-14T05:14:24.515Z,7.70
2022-10-14T05:17:05.327Z,7.70
2022-10-14T05:19:35.944Z,7.80
2022-10-14T05:22:04.953Z,7.80
2022-10-14T05:24:38.871Z,7.90
2022-10-14T05:27:07.950Z,7.90
2022-10-14T05:29:37.178Z,8.00
2022-10-14T05:32:06.128Z,8.60
2022-10-14T05:34:40.911Z,8.00
2022-10-14T05:37:12.414Z,8.10
2022-10-14T05:39:48.621Z,8.10
2022-10-14T05:42:20.757Z,8.10
2022-10-14T05:44:51.305Z,8.20
2022-10-14T05:47:20.078Z,8.20
2022-10-14T05:49:51.510Z,8.40
2022-10-14T05:52:20.412Z,8.40
2022-10-14T05:54:51.388Z,8.40
2022-10-14T05:57:24.030Z,8.50
2022-10-14T05:59:52.701Z,8.60
2022-10-14T06:02:22.282Z,8.60
2022-10-14T06:04:51.437Z,8.60
2022-10-14T06:07:21.095Z,8.60
2022-10-14T06:09:51.711Z,9.50
2022-10-14T06:12:20.793Z,9.00
2022-10-14T06:14:49.888Z,9.30
2022-10-14T06:17:18.781Z,9.30
2022-10-14T06:19:48.710Z,9.00
2022-10-14T06:22:22.063Z,9.50
2022-10-14T06:24:52.853Z,9.00
2022-10-14T06:27:21.592Z,8.90
2022-10-14T06:29:50.358Z,9.90
2022-10-14T06:32:19.337Z,10.30
2022-10-14T06:34:48.353Z,9.00
2022-10-14T06:37:17.266Z,10.50
2022-10-14T06:39:47.008Z,9.00
2022-10-14T06:42:17.531Z,9.10
2022-10-14T06:44:47.268Z,9.20
2022-10-14T06:47:16.324Z,9.40
2022-10-14T06:49:45.254Z,9.60
2022-10-14T06:52:14.039Z,10.50
2022-10-14T06:54:47.997Z,9.80
2022-10-14T06:57:18.722Z,9.90
2022-10-14T06:59:47.651Z,10.00
2022-10-14T07:02:16.848Z,10.20
2022-10-14T07:04:46.035Z,10.40
2022-10-14T07:07:14.885Z,10.50
2022-10-14T07:09:43.610Z,10.60
2022-10-14T07:12:12.574Z,10.80
2022-10-14T07:14:43.136Z,11.00
2022-10-14T07:17:12.297Z,11.20
2022-10-14T07:19:41.193Z,11.40
2022-10-14T07:22:10.139Z,11.40
2022-10-14T07:24:39.005Z,11.50
2022-10-14T07:27:10.472Z,11.60
2022-10-14T07:29:39.190Z,12.30
2022-10-14T07:32:09.767Z,11.80
2022-10-14T07:34:38.773Z,12.10
2022-10-14T07:37:07.695Z,11.90
2022-10-14T07:39:36.615Z,12.80
2022-10-14T07:42:06.163Z,11.90
2022-10-14T07:44:35.123Z,12.00
2022-10-14T07:47:04.395Z,12.10
2022-10-14T07:49:34.875Z,12.60
2022-10-14T07:52:04.084Z,12.40
2022-10-14T07:54:36.053Z,12.40
2022-10-14T07:57:05.017Z,12.60
2022-10-14T07:59:33.636Z,12.60
2022-10-14T08:02:02.628Z,12.60
2022-10-14T08:04:31.594Z,12.60
2022-10-14T08:07:01.865Z,12.90
2022-10-14T08:09:31.098Z,13.00
2022-10-14T08:11:59.790Z,12.90
2022-10-14T08:14:28.591Z,12.80
2022-10-14T08:16:57.443Z,13.10
2022-10-14T08:19:26.593Z,12.50
2022-10-14T08:21:55.480Z,12.80
2022-10-14T08:24:25.906Z,13.10
2022-10-14T08:26:56.731Z,12.90
2022-10-14T08:29:26.745Z,12.60
2022-10-14T08:31:55.377Z,12.70
2022-10-14T08:34:24.587Z,12.80
2022-10-14T08:36:53.241Z,12.90
2022-10-14T08:39:22.626Z,13.10
2022-10-14T08:42:18.694Z,13.20
2022-10-14T08:44:52.880Z,13.50
2022-10-14T08:47:26.727Z,13.70
2022-10-14T08:50:02.949Z,14.00
2022-10-14T08:52:37.803Z,14.10
2022-10-14T08:55:18.329Z,14.00
2022-10-14T08:57:54.265Z,14.40
2022-10-14T09:00:23.865Z,14.50
2022-10-14T09:02:54.018Z,14.80
2022-10-14T09:05:25.061Z,14.70
2022-10-14T09:07:57.436Z,14.60
2022-10-14T09:10:32.445Z,14.50
2022-10-14T09:13:12.450Z,14.50
2022-10-14T09:15:44.176Z,14.50
2022-10-14T09:18:23.956Z,14.70
2022-10-14T09:20:54.189Z,14.70
2022-10-14T09:23:24.909Z,14.80
2022-10-14T09:25:58.846Z,14.70
2022-10-14T09:28:37.044Z,14.90
2022-10-14T09:31:06.840Z,15.10
2022-10-14T09:33:42.274Z,15.20
2022-10-14T09:36:20.794Z,15.30
2022-10-14T09:38:52.634Z,15.30
2022-10-14T09:41:26.205Z,15.30
2022-10-14T09:44:23.008Z,15.20
2022-10-14T09:46:56.378Z,15.30
2022-10-14T09:49:36.189Z,15.50
2022-10-14T09:52:07.658Z,15.70
2022-10-14T09:54:36.866Z,15.70
2022-10-14T09:57:08.739Z,15.80
2022-10-14T09:59:52.219Z,16.00
2022-10-14T10:02:25.230Z,16.30
2022-10-14T10:04:55.008Z,16.30
2022-10-14T10:07:32.349Z,16.10
2022-10-14T10:10:05.652Z,16.10
2022-10-14T10:12:36.658Z,16.10
2022-10-14T10:15:11.862Z,16.10
2022-10-14T10:17:41.841Z,16.20
2022-10-14T10:20:28.594Z,16.30
2022-10-14T10:22:58.549Z,16.50
2022-10-14T10:25:29.450Z,16.40
2022-10-14T10:28:00.271Z,16.40
2022-10-14T10:30:33.349Z,16.40
2022-10-14T10:33:19.932Z,16.50
2022-10-14T10:36:04.366Z,16.70
2022-10-14T10:38:35.777Z,16.80
2022-10-14T10:41:16.267Z,16.70
2022-10-14T10:44:10.721Z,16.70
2022-10-14T10:47:04.104Z,16.80
2022-10-14T10:49:51.998Z,16.80
2022-10-14T10:52:30.781Z,16.70
2022-10-14T10:55:10.361Z,16.80
2022-10-14T10:57:50.836Z,16.90
2022-10-14T11:03:03.352Z,17.10
2022-10-14T11:05:44.996Z,16.90
2022-10-14T11:08:53.875Z,16.90
2022-10-14T11:11:45.044Z,16.60
2022-10-14T11:14:53.091Z,16.50
2022-10-14T11:17:28.184Z,16.60
2022-10-14T11:20:09.244Z,16.50
2022-10-14T11:22:56.492Z,16.70
2022-10-14T11:25:41.895Z,16.50
2022-10-14T11:28:19.769Z,16.50
2022-10-14T11:30:55.226Z,16.50
2022-10-14T11:33:39.016Z,16.60
2022-10-14T11:36:23.516Z,16.70
2022-10-14T11:39:07.850Z,16.80
2022-10-14T11:42:01.529Z,16.90
2022-10-14T11:47:10.115Z,16.80
2022-10-14T11:49:45.849Z,16.70
2022-10-14T11:52:23.222Z,16.80
2022-10-14T11:54:56.860Z,16.90
2022-10-14T11:57:32.778Z,17.10
2022-10-14T12:00:06.149Z,17.10
2022-10-14T12:02:59.383Z,17.10
2022-10-14T12:05:36.693Z,17.20
2022-10-14T12:08:22.267Z,17.30
2022-10-14T12:10:56.232Z,17.30
2022-10-14T12:13:33.280Z,17.30
2022-10-14T12:16:05.569Z,17.20
2022-10-14T12:21:19.207Z,17.30
2022-10-14T12:23:52.901Z,17.20
2022-10-14T12:26:41.739Z,17.30
2022-10-14T12:29:14.553Z,17.30
2022-10-14T12:31:51.076Z,17.20
2022-10-14T12:34:35.081Z,17.10
2022-10-14T12:37:50.200Z,17.20
2022-10-14T12:40:36.825Z,17.30
2022-10-14T12:43:14.072Z,17.40
2022-10-14T12:45:57.789Z,17.20
2022-10-14T12:48:28.857Z,17.00
2022-10-14T12:51:10.220Z,17.00
2022-10-14T12:53:47.885Z,17.10
2022-10-14T12:56:30.292Z,17.10
2022-10-14T12:59:02.416Z,17.00
2022-10-14T13:01:35.448Z,17.00
2022-10-14T13:04:08.395Z,16.90
2022-10-14T13:06:39.737Z,16.90
2022-10-14T13:09:33.291Z,16.80
2022-10-14T13:12:46.706Z,16.70
2022-10-14T13:15:51.694Z,16.80
2022-10-14T13:18:51.835Z,16.90
2022-10-14T13:21:53.988Z,16.80
2022-10-14T13:24:28.419Z,16.70
2022-10-14T13:27:09.575Z,16.70
2022-10-14T13:29:56.837Z,16.60
2022-10-14T13:32:35.012Z,16.60
2022-10-14T13:35:14.200Z,16.70
2022-10-14T13:37:46.827Z,16.80
2022-10-14T13:40:23.713Z,16.70
2022-10-14T13:42:56.381Z,16.80
2022-10-14T13:45:32.867Z,16.70
2022-10-14T13:48:04.091Z,16.70
2022-10-14T13:50:38.109Z,16.70
2022-10-14T13:53:13.906Z,16.60
2022-10-14T13:55:51.706Z,16.60
2022-10-14T13:58:25.071Z,16.50
2022-10-14T14:01:04.441Z,16.50
2022-10-14T14:03:38.196Z,16.60
2022-10-14T14:06:13.200Z,16.50
2022-10-14T14:08:48.936Z,16.50
2022-10-14T14:11:20.227Z,16.50
2022-10-14T14:14:00.307Z,16.40
2022-10-14T14:16:35.874Z,16.50
2022-10-14T14:19:09.607Z,16.50
2022-10-14T14:21:39.717Z,16.40
2022-10-14T14:24:18.691Z,16.50
2022-10-14T14:26:55.930Z,16.60
2022-10-14T14:29:32.376Z,16.50
2022-10-14T14:32:07.601Z,16.50
2022-10-14T14:34:41.754Z,16.40
2022-10-14T14:37:40.316Z,16.40
2022-10-14T14:40:15.598Z,16.40
2022-10-14T14:42:47.218Z,16.40
2022-10-14T14:45:20.567Z,16.30
2022-10-14T14:47:54.760Z,16.30
2022-10-14T14:50:33.821Z,16.30
2022-10-14T14:53:05.157Z,16.20
2022-10-14T14:55:58.294Z,16.20
2022-10-14T14:58:30.718Z,16.30
2022-10-14T15:01:00.165Z,16.10
2022-10-14T15:03:32.332Z,16.20
2022-10-14T15:06:04.713Z,16.20
2022-10-14T15:08:36.920Z,16.30
2022-10-14T15:11:06.375Z,16.20
2022-10-14T15:13:49.518Z,16.30
2022-10-14T15:16:35.358Z,16.30
2022-10-14T15:19:27.715Z,16.10
2022-10-14T15:22:36.561Z,16.00
2022-10-14T15:25:10.829Z,16.00
2022-10-14T15:27:53.956Z,15.90
2022-10-14T15:30:34.952Z,15.80
2022-10-14T15:33:15.175Z,15.80
2022-10-14T15:35:45.841Z,15.80
2022-10-14T15:38:18.429Z,15.60
2022-10-14T15:40:51.000Z,15.60
2022-10-14T15:43:24.119Z,15.50
2022-10-14T15:46:17.987Z,15.50
2022-10-14T15:48:50.024Z,15.50
2022-10-14T15:51:20.584Z,15.40
2022-10-14T15:53:51.883Z,15.40
2022-10-14T15:56:22.143Z,15.30
2022-10-14T15:58:51.316Z,15.30
2022-10-14T16:01:22.536Z,15.20
2022-10-14T16:03:52.670Z,15.10
2022-10-14T16:06:22.839Z,15.10
2022-10-14T16:08:53.170Z,15.10
2022-10-14T16:11:24.988Z,15.10
2022-10-14T16:13:54.021Z,15.10
2022-10-14T16:16:26.890Z,15.00
2022-10-14T16:18:55.760Z,15.00
2022-10-14T16:21:24.672Z,15.00
2022-10-14T16:23:54.953Z,15.00
2022-10-14T16:26:26.065Z,14.90
2022-10-14T16:28:54.683Z,14.80
2022-10-14T16:31:23.453Z,14.90
2022-10-14T16:33:55.619Z,14.80
2022-10-14T16:36:26.161Z,14.80
2022-10-14T16:38:57.647Z,14.80
2022-10-14T16:41:29.177Z,14.80
2022-10-14T16:43:58.061Z,14.70
2022-10-14T16:46:46.646Z,14.80
2022-10-14T16:49:15.330Z,14.70
2022-10-14T16:51:44.535Z,14.70
2022-10-14T16:54:14.396Z,14.60
2022-10-14T16:56:56.909Z,14.60
2022-10-14T16:59:28.314Z,14.60
2022-10-14T17:01:57.071Z,14.70
2022-10-14T17:04:25.845Z,14.60
2022-10-14T17:06:59.498Z,14.50
2022-10-14T17:09:29.396Z,14.50
2022-10-14T17:12:00.016Z,14.50
2022-10-14T17:14:31.356Z,14.40
2022-10-14T17:17:00.559Z,14.40
2022-10-14T17:19:29.449Z,14.20
2022-10-14T17:21:58.692Z,14.20
2022-10-14T17:24:27.547Z,14.20
2022-10-14T17:26:57.640Z,14.30
2022-10-14T17:29:26.322Z,14.20
2022-10-14T17:31:55.019Z,14.10
2022-10-14T17:34:23.736Z,14.10
2022-10-14T17:36:53.306Z,14.10
2022-10-14T17:39:27.601Z,14.10
2022-10-14T17:41:59.193Z,14.20
2022-10-14T17:44:28.716Z,14.00
2022-10-14T17:46:59.286Z,13.90
2022-10-14T17:49:31.236Z,13.90
2022-10-14T17:52:02.078Z,13.80
2022-10-14T17:54:31.184Z,13.80
2022-10-14T17:57:01.015Z,13.70
2022-10-14T17:59:29.521Z,13.70
2022-10-14T18:02:02.580Z,13.60
2022-10-14T18:04:33.248Z,13.50
2022-10-14T18:07:01.883Z,13.40
2022-10-14T18:09:30.350Z,13.20
2022-10-14T18:12:08.660Z,13.30
2022-10-14T18:14:38.272Z,13.20
2022-10-14T18:17:06.972Z,13.20
2022-10-14T18:19:35.976Z,13.20
2022-10-14T18:22:06.630Z,13.20
2022-10-14T18:24:38.457Z,13.30
2022-10-14T18:27:08.574Z,13.20
2022-10-14T18:29:37.099Z,13.20
2022-10-14T18:32:06.387Z,13.20
2022-10-14T18:34:34.958Z,13.20
2022-10-14T18:37:03.486Z,13.20
2022-10-14T18:39:32.033Z,13.20
2022-10-14T18:42:00.507Z,13.10
2022-10-14T18:44:30.392Z,13.00
2022-10-14T18:46:59.092Z,13.00
2022-10-14T18:49:27.650Z,13.00
2022-10-14T18:51:56.200Z,13.00
2022-10-14T18:54:24.966Z,13.00
2022-10-14T18:56:54.863Z,13.10
2022-10-14T18:59:24.691Z,12.80
2022-10-14T19:01:55.336Z,12.80
2022-10-14T19:04:26.766Z,13.00
2022-10-14T19:06:55.295Z,13.10
2022-10-14T19:09:28.965Z,13.00
2022-10-14T19:11:59.122Z,12.90
2022-10-14T19:14:31.882Z,12.80
2022-10-14T19:17:02.890Z,12.60
2022-10-14T19:19:32.981Z,13.40
2022-10-14T19:22:01.761Z,12.60
2022-10-14T19:24:30.780Z,12.40
2022-10-14T19:26:59.730Z,12.30
2022-10-14T19:29:28.510Z,12.20
2022-10-14T19:31:57.541Z,12.10
2022-10-14T19:34:28.240Z,12.10
2022-10-14T19:37:00.139Z,12.00
2022-10-14T19:39:28.910Z,12.10
2022-10-14T19:41:57.917Z,12.00
2022-10-14T19:44:26.823Z,12.00
2022-10-14T19:46:55.648Z,11.90
2022-10-14T19:49:24.918Z,12.00
2022-10-14T19:51:55.372Z,11.90
2022-10-14T19:54:24.479Z,11.90
2022-10-14T19:56:53.145Z,12.10
2022-10-14T19:59:24.362Z,12.00
2022-10-14T20:01:53.009Z,12.00
2022-10-14T20:04:25.156Z,12.00
2022-10-14T20:07:00.687Z,12.20
2022-10-14T20:09:29.740Z,12.20
2022-10-14T20:11:59.964Z,12.30
2022-10-14T20:14:30.433Z,12.30
2022-10-14T20:16:59.274Z,12.20
2022-10-14T20:19:29.616Z,12.20
2022-10-14T20:22:01.609Z,12.10
2022-10-14T20:24:32.609Z,12.00
2022-10-14T20:27:04.536Z,12.00
2022-10-14T20:29:36.749Z,11.90
2022-10-14T20:32:06.157Z,11.90
2022-10-14T20:34:35.302Z,12.00
2022-10-14T20:37:05.617Z,12.10
2022-10-14T20:39:34.265Z,12.00
2022-10-14T20:42:04.922Z,12.10
2022-10-14T20:44:34.549Z,12.10
2022-10-14T20:47:03.479Z,12.10
2022-10-14T20:49:33.671Z,12.10
2022-10-14T20:52:02.490Z,12.20
2022-10-14T20:54:32.816Z,12.10
2022-10-14T20:57:01.681Z,12.20
2022-10-14T20:59:30.700Z,12.30
2022-10-14T21:01:59.647Z,12.20
2022-10-14T21:04:28.281Z,12.20
2022-10-14T21:06:57.065Z,12.30
2022-10-14T21:09:26.112Z,12.40
2022-10-14T21:11:56.581Z,12.40
2022-10-14T21:14:25.562Z,12.60
2022-10-14T21:16:55.094Z,12.50
2022-10-14T21:19:23.930Z,12.50
2022-10-14T21:21:52.561Z,12.60
2022-10-14T21:24:25.494Z,12.60
2022-10-14T21:26:57.275Z,12.60
2022-10-14T21:29:27.115Z,12.70
2022-10-14T21:31:56.201Z,12.70
2022-10-14T21:34:25.112Z,12.70
2022-10-14T21:36:54.165Z,12.60
2022-10-14T21:39:24.075Z,12.60
2022-10-14T21:41:53.672Z,12.50
2022-10-14T21:44:23.915Z,12.50
2022-10-14T21:46:52.606Z,12.50
2022-10-14T21:49:21.369Z,12.50
2022-10-14T21:51:50.089Z,12.30
2022-10-14T21:54:18.962Z,12.20
2022-10-14T21:56:48.100Z,12.10
2022-10-14T21:59:17.519Z,12.00
2022-10-14T22:01:48.135Z,11.90
2022-10-14T22:04:16.999Z,12.00
2022-10-14T22:06:45.763Z,11.90
2022-10-14T22:09:14.830Z,11.90
2022-10-14T22:11:43.578Z,11.70
2022-10-14T22:14:14.370Z,11.70
2022-10-14T22:16:43.179Z,11.60
2022-10-14T22:19:14.775Z,11.50
2022-10-14T22:21:46.291Z,11.60
2022-10-14T22:24:15.252Z,11.50
2022-10-14T22:26:44.200Z,11.50
2022-10-14T22:29:15.206Z,11.50
2022-10-14T22:31:43.978Z,11.50
2022-10-14T22:34:16.461Z,11.60
2022-10-14T22:36:48.444Z,11.50
2022-10-14T22:39:18.664Z,11.50
2022-10-14T22:41:47.692Z,11.30
2022-10-14T22:44:16.268Z,11.20
2022-10-14T22:46:44.863Z,11.20
2022-10-14T22:49:15.522Z,11.30
2022-10-14T22:51:44.186Z,11.20
2022-10-14T22:54:13.941Z,11.10
2022-10-14T22:56:42.736Z,11.20
2022-10-14T22:59:13.931Z,11.10
2022-10-14T23:01:44.175Z,11.10
2022-10-14T23:04:14.659Z,11.10
2022-10-14T23:06:46.820Z,10.90
2022-10-14T23:09:15.481Z,10.90
2022-10-14T23:11:44.282Z,11.00
2022-10-14T23:14:12.953Z,11.00
2022-10-14T23:16:41.750Z,11.00
2022-10-14T23:19:12.782Z,10.90
2022-10-14T23:21:43.660Z,10.90
2022-10-14T23:24:13.432Z,10.80
2022-10-14T23:26:42.350Z,10.80
2022-10-14T23:29:12.997Z,10.70
2022-10-14T23:31:42.610Z,10.60
2022-10-14T23:34:14.226Z,10.60
2022-10-14T23:36:44.645Z,10.70
2022-10-14T23:39:13.601Z,10.60
2022-10-14T23:41:43.476Z,10.30
2022-10-14T23:44:13.588Z,10.40
2022-10-14T23:46:42.693Z,10.30
2022-10-14T23:49:25.644Z,10.20
2022-10-14T23:51:56.985Z,10.30
2022-10-14T23:54:26.127Z,10.30
2022-10-14T23:56:55.101Z,10.30
2022-10-14T23:59:23.837Z,10.30
